createdAt,value
2023-02-09T00:04:30.111Z,99194.41
2023-02-09T00:09:31.368Z,99191.84
2023-02-09T00:14:32.652Z,99187.00
2023-02-09T00:19:33.913Z,99184.31
2023-02-09T00:24:35.246Z,99172.94
2023-02-09T00:29:36.551Z,99178.94
2023-02-09T00:34:38.328Z,99162.09
2023-02-09T00:39:39.527Z,99157.75
2023-02-09T00:44:40.806Z,99160.47
2023-02-09T00:49:42.097Z,99152.59
2023-02-09T00:54:43.409Z,99145.31
2023-02-09T00:59:44.788Z,99144.13
2023-02-09T01:04:46.122Z,99145.09
2023-02-09T01:09:47.425Z,99148.47
2023-02-09T01:14:48.712Z,99131.16
2023-02-09T01:19:49.949Z,99123.59
2023-02-09T01:24:51.186Z,99119.94
2023-02-09T01:29:52.459Z,99121.75
2023-02-09T06:55:30.502Z,99214.06
2023-02-09T07:00:31.890Z,99213.38
2023-02-09T07:05:33.137Z,99223.72
2023-02-09T07:10:34.348Z,99222.50
2023-02-09T07:15:35.647Z,99219.78
2023-02-09T07:20:36.929Z,99216.13
2023-02-09T07:25:38.196Z,99217.50
2023-02-09T07:30:41.179Z,99215.75
2023-02-09T07:35:42.482Z,99220.47
2023-02-09T07:40:47.164Z,99210.47
2023-02-09T07:45:48.705Z,99228.44
2023-02-09T07:50:50.067Z,99206.88
2023-02-09T07:55:51.381Z,99192.13
2023-02-09T08:00:52.654Z,99177.78
2023-02-09T08:05:53.935Z,99158.56
2023-02-09T08:10:55.140Z,99151.69
2023-02-09T08:15:56.436Z,99146.16
2023-02-09T08:20:57.668Z,99154.63
2023-02-09T08:25:58.954Z,99158.41
2023-02-09T08:31:00.716Z,99153.66
2023-02-09T08:36:02.274Z,99154.88
2023-02-09T08:41:04.642Z,99161.28
2023-02-09T08:46:06.094Z,99154.22
2023-02-09T08:51:07.411Z,99167.00
2023-02-09T08:56:08.770Z,99175.00
2023-02-09T09:01:10.306Z,99183.66
2023-02-09T09:06:12.096Z,99188.88
2023-02-09T09:11:14.968Z,99189.41
2023-02-09T09:16:16.439Z,99189.75
2023-02-09T09:21:18.030Z,99193.16
2023-02-09T09:26:19.381Z,99181.06
2023-02-09T09:31:20.876Z,99171.91
2023-02-09T09:36:22.235Z,99173.78
2023-02-09T09:41:23.767Z,99167.53
2023-02-09T09:46:25.127Z,99170.25
2023-02-09T09:51:26.435Z,99160.44
2023-02-09T09:56:27.643Z,99156.13
2023-02-09T10:01:29.085Z,99143.09
2023-02-09T10:06:30.449Z,99138.69
2023-02-09T10:11:31.741Z,99144.50
2023-02-09T10:16:34.534Z,99136.34
2023-02-09T10:21:36.138Z,99134.56
2023-02-09T10:26:40.081Z,99137.03
2023-02-09T10:31:41.717Z,99132.94
2023-02-09T10:36:43.039Z,99119.59
2023-02-09T10:41:44.294Z,99109.97
2023-02-09T10:46:47.094Z,99102.63
2023-02-09T10:51:50.240Z,99093.19
2023-02-09T10:56:52.262Z,99092.44
2023-02-09T11:01:53.614Z,99079.31
2023-02-09T11:06:54.850Z,99059.97
2023-02-09T11:11:56.126Z,99054.47
2023-02-09T11:16:57.410Z,99052.22
2023-02-09T11:21:58.708Z,99045.47
2023-02-09T11:27:02.174Z,99035.47
2023-02-09T11:32:03.417Z,99029.56
2023-02-09T11:37:04.714Z,99018.53
2023-02-09T11:42:24.933Z,99011.72
2023-02-09T11:47:26.184Z,98999.63
2023-02-09T11:52:27.434Z,98998.81
2023-02-09T11:57:28.701Z,98987.72
2023-02-09T12:02:29.991Z,98969.69
2023-02-09T12:07:32.871Z,98963.75
2023-02-09T12:12:34.457Z,98968.81
2023-02-09T12:17:35.772Z,98961.09
2023-02-09T12:22:37.033Z,98960.09
2023-02-09T12:27:38.986Z,98951.34
2023-02-09T12:32:40.232Z,98940.94
2023-02-09T12:37:41.504Z,98929.03
2023-02-09T12:42:42.739Z,98925.63
2023-02-09T12:47:44.049Z,98915.22
2023-02-09T12:52:45.277Z,98910.00
2023-02-09T12:57:47.569Z,98906.53
2023-02-09T13:02:49.905Z,98903.13
2023-02-09T13:07:51.225Z,98907.09
2023-02-09T13:12:52.483Z,98894.03
2023-02-09T13:17:53.717Z,98893.78
2023-02-09T13:22:55.023Z,98898.56
2023-02-09T13:27:56.427Z,98896.00
2023-02-09T13:32:57.702Z,98897.00
2023-02-09T13:37:58.953Z,98899.56
2023-02-09T13:43:00.396Z,98893.63
2023-02-09T13:48:04.214Z,98880.44
2023-02-09T13:53:05.500Z,98877.19
2023-02-09T13:58:07.215Z,98873.75
2023-02-09T14:03:12.380Z,98863.88
2023-02-09T14:08:13.774Z,98866.13
2023-02-09T14:13:17.347Z,98854.59
2023-02-09T14:18:18.587Z,98860.47
2023-02-09T14:23:20.119Z,98843.16
2023-02-09T14:28:21.713Z,98851.56
2023-02-09T14:33:24.794Z,98841.44
2023-02-09T14:38:26.069Z,98837.38
2023-02-09T14:43:27.385Z,98853.22
2023-02-09T14:48:28.731Z,98849.28
2023-02-09T14:53:30.104Z,98844.19
2023-02-09T14:58:31.372Z,98833.00
2023-02-09T15:03:32.659Z,98847.59
2023-02-09T15:08:33.929Z,98835.41
2023-02-09T15:13:35.253Z,98822.59
2023-02-09T15:18:36.453Z,98829.81
2023-02-09T15:23:37.659Z,98839.16
2023-02-09T15:28:38.963Z,98852.09
2023-02-09T15:33:40.349Z,98855.63
2023-02-09T15:38:41.577Z,98864.28
2023-02-09T15:44:01.566Z,98872.88
2023-02-09T15:49:02.884Z,98890.84
2023-02-09T15:54:04.242Z,98902.78
2023-02-09T15:59:05.653Z,98923.22
2023-02-09T16:04:14.924Z,98945.25
2023-02-09T16:09:16.324Z,98959.78
2023-02-09T16:14:17.702Z,98974.91
2023-02-09T16:19:19.140Z,98986.63
2023-02-09T16:24:20.376Z,98990.19
2023-02-09T16:29:21.612Z,98994.13
2023-02-09T16:34:22.844Z,99004.25
2023-02-09T16:39:24.173Z,99019.63
2023-02-09T16:44:26.704Z,99033.91
2023-02-09T16:49:28.221Z,99052.88
2023-02-09T16:54:29.522Z,99052.78
2023-02-09T16:59:30.744Z,99071.75
2023-02-09T17:04:32.196Z,99086.25
2023-02-09T17:09:34.283Z,99078.38
2023-02-09T17:14:35.996Z,99084.44
2023-02-09T17:19:47.381Z,99088.66
2023-02-09T17:24:49.295Z,99084.53
2023-02-09T17:29:50.505Z,99101.31
2023-02-09T17:34:51.744Z,99089.31
2023-02-09T17:39:52.968Z,99088.34
2023-02-09T17:44:55.887Z,99093.44
2023-02-09T17:50:00.390Z,99091.66
2023-02-09T17:55:03.989Z,99096.47
2023-02-09T18:00:05.529Z,99112.88
2023-02-09T18:05:06.962Z,99122.81
2023-02-09T18:10:08.214Z,99127.81
2023-02-09T18:15:11.681Z,99146.00
2023-02-09T18:20:12.926Z,99159.50
2023-02-09T18:25:14.525Z,99154.91
2023-02-09T18:30:19.331Z,99146.53
2023-02-09T18:35:23.864Z,99114.63
2023-02-09T18:40:25.223Z,99139.63
2023-02-09T18:45:26.505Z,99156.03
2023-02-09T18:50:27.802Z,99170.38
2023-02-09T18:55:32.180Z,99182.50
2023-02-09T19:00:33.417Z,99191.53
2023-02-09T19:05:34.760Z,99201.88
2023-02-09T19:10:36.141Z,99216.22
2023-02-09T19:15:39.121Z,99227.50
2023-02-09T19:20:40.498Z,99231.47
2023-02-09T19:25:41.826Z,99230.69
2023-02-09T19:30:43.121Z,99243.06
2023-02-09T19:35:44.555Z,99237.19
2023-02-09T19:40:47.972Z,99244.25
2023-02-09T19:45:49.364Z,99229.44
2023-02-09T19:50:50.586Z,99229.28
2023-02-09T19:55:51.811Z,99238.03
2023-02-09T20:00:55.037Z,99249.84
2023-02-09T20:05:56.266Z,99239.91
2023-02-09T20:10:57.468Z,99259.06
2023-02-09T20:16:01.931Z,99261.66
2023-02-09T20:21:03.259Z,99274.88
2023-02-09T20:26:04.529Z,99270.81
2023-02-09T20:31:06.626Z,99266.44
2023-02-09T20:36:07.918Z,99281.50
2023-02-09T20:41:09.422Z,99286.81
2023-02-09T20:46:29.530Z,99286.09
2023-02-09T20:51:30.787Z,99271.19
2023-02-09T20:56:32.106Z,99276.72
2023-02-09T21:01:33.516Z,99266.91
2023-02-09T21:06:35.077Z,99301.06
2023-02-09T21:11:36.410Z,99281.59
2023-02-09T21:16:39.378Z,99287.94
2023-02-09T21:21:44.520Z,99302.59
2023-02-09T21:26:59.622Z,99298.66
2023-02-09T21:32:03.565Z,99300.31
2023-02-09T21:37:10.250Z,99304.06
2023-02-09T21:42:27.247Z,99320.16
2023-02-09T21:47:28.619Z,99319.72
2023-02-09T21:52:34.559Z,99324.84
2023-02-09T21:57:35.835Z,99324.31
2023-02-09T22:02:37.102Z,99333.75
2023-02-09T22:07:38.471Z,99339.53
2023-02-09T22:12:39.907Z,99336.69
2023-02-09T22:17:41.221Z,99331.97
2023-02-09T22:22:45.437Z,99328.94
2023-02-09T22:27:46.694Z,99333.97
2023-02-09T22:32:47.978Z,99333.75
2023-02-09T22:37:49.234Z,99342.22
2023-02-09T22:42:50.524Z,99349.03
2023-02-09T22:47:51.826Z,99357.91
2023-02-09T22:52:53.054Z,99354.25
2023-02-09T22:57:54.418Z,99352.41
2023-02-09T23:02:56.086Z,99367.22
2023-02-09T23:07:57.287Z,99378.94
2023-02-09T23:12:58.672Z,99376.72
2023-02-09T23:17:59.928Z,99387.94
2023-02-09T23:23:06.449Z,99380.19
2023-02-09T23:28:07.741Z,99382.56
2023-02-09T23:33:08.964Z,99400.50
2023-02-09T23:38:10.194Z,99401.09
2023-02-09T23:43:11.447Z,99413.09
2023-02-09T23:48:12.746Z,99417.84
2023-02-09T23:53:14.672Z,99407.06
2023-02-09T23:58:16.057Z,99418.63
